Nearby METAR Reports

 

KMGY - Dayton, Ohio, USA
Distance from station: N 3mi, 5km
Updated: Wed, 14-Nov-2018 8:53am EST
Clear
Clear
 Wind from ENE
Wind: ENE 6 mph , 9 km/h
Temperature: 25°F , -4°C
Wind Chill: 18°F , -8°C
Dew Point: 18°F , -8°C
Humidity: 74%
Barometer: 30.54 inHg , 1034.2 hPa
Clouds: Clear
Visibility: 10 miles , 16 km
2018/11/14 13:53 KMGY 141353Z AUTO 07005KT 10SM CLR M04/M08 A3054 RMK AO2 SLP352 T10391083
KMWO - Middletown/Hook, Ohio, USA
Distance from station: W 9mi, 14km
Updated: Wed, 14-Nov-2018 8:55am EST
Clear
Clear
 Wind from calm
Wind: Calm
Temperature: 25°F , -4°C
Dew Point: 19°F , -7°C
Humidity: 80%
Barometer: 30.57 inHg , 1035.2 hPa
Clouds: Clear
Visibility: 10 miles , 16 km
2018/11/14 13:55 KMWO 141355Z AUTO 00000KT 10SM CLR M04/M07 A3057 RMK AO2 T10421074
 
KHAO - Hamilton, Ohio, USA
Distance from station: SW 20mi, 32km
Updated: Wed, 14-Nov-2018 8:53am EST
Clear
Clear
 Wind from E
Wind: E 3 mph , 6 km/h
Temperature: 25°F , -4°C
Dew Point: 19°F , -7°C
Humidity: 80%
Barometer: 30.57 inHg , 1035.2 hPa
Clouds: Clear
Visibility: 9 miles , 14 km
2018/11/14 13:53 KHAO 141353Z AUTO 09003KT 9SM CLR M04/M07 A3057 RMK AO2 SLP359 T10391067
KFFO - Wright Paterson, Ohio, USA
Distance from station: NNE 21mi, 34km
Updated: Wed, 14-Nov-2018 8:56am EST
Mostly cloudy
Mostly cloudy
 Wind from NE
Wind: NE 6 mph , 9 km/h
Temperature: 23°F , -5°C
Wind Chill: 16°F , -9°C
Dew Point: 16°F , -9°C
Humidity: 74%
Barometer: 30.55 inHg , 1034.5 hPa
Clouds: Mostly cloudy
Visibility: 10 miles , 16 km
Cloud details: Mostly cloudy 25000 ft
2018/11/14 13:56 KFFO 141356Z 04005KT 10SM BKN250 M05/M09 A3055 RMK AO2A SLP360 T10471086
 
KDAY - Dayton, Ohio, USA
Distance from station: N 24mi, 39km
Updated: Wed, 14-Nov-2018 8:56am EST
Mostly cloudy
Mostly cloudy
 Wind from ENE
Wind: ENE 5 mph , 7 km/h
Temperature: 25°F , -4°C
Wind Chill: 19°F , -7°C
Dew Point: 18°F , -8°C
Humidity: 74%
Barometer: 30.55 inHg , 1034.5 hPa
Clouds: Mostly cloudy
Visibility: 10 miles , 16 km
Cloud details: Partly cloudy 12000 ft
Mostly cloudy 25000 ft
2018/11/14 13:56 KDAY 141356Z 06004KT 10SM SCT120 BKN250 M04/M08 A3055 RMK AO2 SLP357 T10441078
KILN - Wilmington, Ohio, USA
Distance from station: ESE 25mi, 39km
Updated: Wed, 14-Nov-2018 8:54am EST
Clear
Clear
 Wind from ENE
Wind: ENE 8 mph , 13 km/h
Temperature: 25°F , -4°C
Wind Chill: 16°F , -9°C
Dew Point: 18°F , -8°C
Humidity: 74%
Barometer: 30.53 inHg , 1033.9 hPa
Clouds: Clear
Visibility: 10 miles , 16 km
2018/11/14 13:54 KILN 141354Z AUTO 06007KT 10SM CLR M04/M08 A3053 RMK AO2 SLP369 T10441083
 
KSGH - Springfield Muni, Ohio, USA
Distance from station: NE 29mi, 46km
Updated: Wed, 14-Nov-2018 8:56am EST
Clear
Clear
 Wind from ENE
Wind: ENE 5 mph , 7 km/h
Temperature: 21°F , -6°C
Wind Chill: 14°F , -10°C
Dew Point: 19°F , -7°C
Humidity: 93%
Barometer: 30.53 inHg , 1033.9 hPa
Clouds: Clear
Visibility: 10 miles , 16 km
2018/11/14 13:56 KSGH 141356Z AUTO 06004KT 10SM CLR M06/M07 A3053 RMK AO2 SLP357 T10561072 FZRANO $
KI69 - Batavia, Ohio, USA
Distance from station: S 32mi, 52km
Updated: Wed, 14-Nov-2018 8:55am EST
Clear
Clear
 Wind from ENE
Wind: ENE 3 mph , 6 km/h
Temperature: 27°F , -3°C
Dew Point: 19°F , -7°C
Humidity: 74%
Barometer: 30.54 inHg , 1034.2 hPa
Clouds: Clear
Visibility: 10 miles , 16 km
2018/11/14 13:55 KI69 141355Z AUTO 07003KT 10SM CLR M03/M07 A3054 RMK AO2 T10351070
 
KLUK - Cincinnat/Lunken, Ohio, USA
Distance from station: SSW 33mi, 53km
Updated: Wed, 14-Nov-2018 8:53am EST
Clear
Clear
 Wind from NE
Wind: NE 6 mph , 9 km/h
Temperature: 27°F , -3°C
Wind Chill: 20°F , -7°C
Dew Point: 19°F , -7°C
Humidity: 74%
Barometer: 30.57 inHg , 1035.2 hPa
Clouds: Clear
Visibility: 10 miles , 16 km
2018/11/14 13:53 KLUK 141353Z 04005KT 10SM CLR M03/M07 A3057 RMK AO2 SLP358 T10281067
KCVG - Covington, Kentucky, USA
Distance from station: SSW 42mi, 67km
Updated: Wed, 14-Nov-2018 8:52am EST
Overcast
Overcast
 Wind from ENE
Wind: ENE 9 mph , 15 km/h
Temperature: 27°F , -3°C
Wind Chill: 18°F , -8°C
Dew Point: 18°F , -8°C
Humidity: 69%
Barometer: 30.53 inHg , 1033.9 hPa
Clouds: Overcast
Visibility: 10 miles , 16 km
Cloud details: Mostly cloudy 25000 ft
Overcast 30000 ft
2018/11/14 13:52 KCVG 141352Z 07008KT 10SM BKN250 OVC300 M03/M08 A3053 RMK AO2 SLP345 T10281078 $
 
KVES - Versailles, Ohio, USA
Distance from station: NNW 47mi, 76km
Updated: Wed, 14-Nov-2018 8:55am EST
Clear
Clear
 Wind from N
Wind: N 3 mph , 6 km/h
Temperature: 23°F , -5°C
Dew Point: 21°F , -6°C
Humidity: 93%
Barometer: 30.53 inHg , 1033.9 hPa
Clouds: Clear
Visibility: 10 miles , 16 km
2018/11/14 13:55 KVES 141355Z AUTO 36003KT 10SM CLR M05/M06 A3053 RMK AO2